Terminal Aerodrome Forecast
Issued by NWS

Home | Current Version | Previous Version | Graphics & Text | Print | Product List | Glossary On
Versions: 1 2 3 4 5 6 7 8 9 10 11 12 13
000
FTUS43 KICT 031135
TAFRSL
TAF
KRSL 031135Z 0312/0412 17015G20KT P6SM SCT100
     FM031900 18020G28KT P6SM FEW120
     FM040100 18015KT P6SM BKN120=

USA.gov is the U.S. government's official web portal to all federal, state and local government web resources and services.